createdAt,value
2022-08-25T00:00:20.735Z,57.56
2022-08-25T00:02:54.914Z,57.42
2022-08-25T00:05:17.846Z,57.48
2022-08-25T00:07:40.113Z,57.61
2022-08-25T00:10:02.016Z,57.61
2022-08-25T00:12:24.019Z,57.70
2022-08-25T00:14:45.975Z,57.55
2022-08-25T00:17:07.781Z,57.55
2022-08-25T00:19:35.349Z,57.62
2022-08-25T00:21:57.217Z,57.61
2022-08-25T00:24:21.325Z,57.64
2022-08-25T00:26:48.499Z,57.38
2022-08-25T00:29:11.783Z,57.64
2022-08-25T00:31:37.788Z,57.22
2022-08-25T00:34:01.423Z,57.15
2022-08-25T00:36:23.339Z,57.45
2022-08-25T00:38:48.243Z,57.21
2022-08-25T00:41:18.153Z,57.04
2022-08-25T00:43:48.431Z,57.08
2022-08-25T00:46:13.049Z,56.62
2022-08-25T00:48:35.662Z,56.39
2022-08-25T00:50:57.650Z,56.56
2022-08-25T00:53:19.815Z,56.09
2022-08-25T00:55:42.347Z,56.01
2022-08-25T00:58:14.206Z,55.76
2022-08-25T01:00:49.538Z,55.63
2022-08-25T01:03:11.841Z,55.60
2022-08-25T01:05:34.274Z,55.34
2022-08-25T01:07:58.736Z,55.50
2022-08-25T01:10:22.956Z,55.11
2022-08-25T01:12:45.323Z,54.82
2022-08-25T01:15:12.479Z,54.79
2022-08-25T01:17:57.273Z,54.57
2022-08-25T01:20:29.440Z,54.25
2022-08-25T01:22:55.412Z,53.91
2022-08-25T01:25:47.977Z,53.80
2022-08-25T01:28:10.066Z,53.54
2022-08-25T01:30:33.029Z,53.51
2022-08-25T01:32:54.990Z,53.60
2022-08-25T01:35:18.802Z,53.65
2022-08-25T01:37:41.341Z,53.05
2022-08-25T01:40:06.124Z,53.35
2022-08-25T01:42:48.290Z,52.75
2022-08-25T01:45:10.478Z,53.08
2022-08-25T01:47:33.052Z,53.02
2022-08-25T01:49:54.978Z,52.84
2022-08-25T01:52:37.756Z,53.03
2022-08-25T01:54:59.718Z,53.01
2022-08-25T01:57:22.552Z,52.69
2022-08-25T01:59:45.079Z,53.07
2022-08-25T02:02:07.273Z,53.11
2022-08-25T02:04:32.414Z,52.94
2022-08-25T02:06:54.347Z,53.31
2022-08-25T02:09:17.843Z,53.28
2022-08-25T02:11:44.890Z,53.42
2022-08-25T02:14:07.148Z,54.01
2022-08-25T02:16:36.614Z,53.85
2022-08-25T02:18:59.363Z,54.22
2022-08-25T02:21:22.249Z,54.41
2022-08-25T02:23:44.987Z,54.41
2022-08-25T02:26:06.889Z,54.43
2022-08-25T02:28:29.531Z,54.66
2022-08-25T02:30:53.013Z,54.63
2022-08-25T02:33:20.821Z,54.72
2022-08-25T02:35:42.634Z,54.64
2022-08-25T02:38:05.536Z,54.67
2022-08-25T02:40:27.708Z,54.63
2022-08-25T02:42:51.472Z,54.69
2022-08-25T02:45:13.978Z,54.46
2022-08-25T02:47:37.230Z,54.54
2022-08-25T02:49:59.455Z,54.26
2022-08-25T02:52:21.532Z,54.09
2022-08-25T02:54:43.594Z,53.86
2022-08-25T02:57:05.536Z,54.06
2022-08-25T02:59:27.795Z,53.78
2022-08-25T03:01:49.713Z,53.89
2022-08-25T03:04:12.516Z,53.76
2022-08-25T03:06:34.456Z,53.95
2022-08-25T03:08:56.694Z,53.73
2022-08-25T03:11:19.081Z,53.68
2022-08-25T03:13:41.826Z,53.73
2022-08-25T03:16:06.088Z,53.51
2022-08-25T03:18:33.691Z,53.35
2022-08-25T03:20:55.522Z,53.50
2022-08-25T03:23:17.743Z,53.64
2022-08-25T03:26:00.748Z,53.54
2022-08-25T03:28:24.941Z,53.65
2022-08-25T03:30:56.088Z,53.88
2022-08-25T03:33:18.226Z,53.60
2022-08-25T03:35:40.735Z,53.81
2022-08-25T03:38:03.665Z,53.93
2022-08-25T03:40:26.642Z,53.95
2022-08-25T03:42:48.970Z,54.05
2022-08-25T03:45:13.617Z,54.22
2022-08-25T03:47:35.459Z,53.99
2022-08-25T03:49:57.957Z,54.10
2022-08-25T03:52:19.976Z,54.11
2022-08-25T03:54:41.825Z,54.23
2022-08-25T03:57:04.299Z,54.15
2022-08-25T03:59:27.239Z,54.32
2022-08-25T04:01:54.508Z,54.16
2022-08-25T04:04:17.226Z,54.10
2022-08-25T04:06:40.860Z,54.09
2022-08-25T04:09:02.773Z,53.96
2022-08-25T04:11:28.866Z,54.05
2022-08-25T04:13:52.692Z,54.05
2022-08-25T04:16:19.741Z,54.22
2022-08-25T04:18:43.456Z,53.83
2022-08-25T04:21:09.151Z,54.02
2022-08-25T04:23:31.327Z,53.85
2022-08-25T04:25:53.139Z,53.78
2022-08-25T04:28:14.986Z,53.98
2022-08-25T04:30:43.806Z,54.00
2022-08-25T04:33:05.672Z,53.76
2022-08-25T04:35:27.494Z,53.93
2022-08-25T04:37:49.425Z,54.00
2022-08-25T04:40:12.196Z,53.95
2022-08-25T04:42:34.349Z,53.80
2022-08-25T04:44:56.229Z,53.94
2022-08-25T04:47:18.153Z,53.77
2022-08-25T04:49:40.240Z,54.06
2022-08-25T04:52:02.110Z,53.85
2022-08-25T04:54:26.405Z,53.71
2022-08-25T04:56:50.719Z,53.83
2022-08-25T04:59:18.791Z,53.77
2022-08-25T05:01:43.178Z,53.78
2022-08-25T05:04:08.450Z,54.02
2022-08-25T05:06:37.348Z,53.94
2022-08-25T05:09:01.644Z,53.66
2022-08-25T05:11:25.957Z,53.76
2022-08-25T05:13:51.224Z,53.54
2022-08-25T05:16:15.075Z,53.28
2022-08-25T05:18:37.620Z,53.34
2022-08-25T05:21:11.227Z,53.32
2022-08-25T05:23:33.498Z,53.19
2022-08-25T05:25:55.340Z,53.26
2022-08-25T05:28:18.535Z,53.15
2022-08-25T05:30:42.961Z,53.13
2022-08-25T05:33:05.091Z,52.83
2022-08-25T05:35:26.917Z,52.59
2022-08-25T05:37:48.856Z,52.76
2022-08-25T05:40:11.220Z,52.57
2022-08-25T05:42:33.462Z,52.55
2022-08-25T05:44:55.616Z,52.58
2022-08-25T05:47:17.553Z,52.51
2022-08-25T05:49:39.616Z,52.37
2022-08-25T05:52:01.720Z,52.69
2022-08-25T05:54:24.341Z,52.55
2022-08-25T05:56:46.235Z,52.30
2022-08-25T05:59:09.540Z,52.38
2022-08-25T06:01:50.310Z,52.27
2022-08-25T06:04:14.159Z,52.12
2022-08-25T06:06:36.204Z,52.39
2022-08-25T06:08:58.071Z,52.27
2022-08-25T06:11:20.008Z,52.20
2022-08-25T06:13:42.339Z,52.03
2022-08-25T06:16:04.786Z,52.26
2022-08-25T06:18:27.506Z,52.25
2022-08-25T06:20:49.478Z,52.15
2022-08-25T06:23:11.277Z,52.17
2022-08-25T06:25:34.056Z,51.98
2022-08-25T06:27:56.101Z,51.60
2022-08-25T06:30:24.548Z,51.63
2022-08-25T06:32:50.899Z,51.46
2022-08-25T06:35:18.880Z,51.18
2022-08-25T06:37:42.472Z,51.27
2022-08-25T06:40:07.569Z,51.13
2022-08-25T06:42:30.032Z,50.92
2022-08-25T06:44:52.424Z,50.87
2022-08-25T06:47:15.798Z,50.79
2022-08-25T06:49:37.733Z,50.56
2022-08-25T06:52:00.117Z,50.59
2022-08-25T06:54:21.913Z,50.17
2022-08-25T06:56:43.945Z,49.73
2022-08-25T06:59:08.271Z,49.90
2022-08-25T07:01:32.420Z,49.63
2022-08-25T07:04:00.133Z,49.29
2022-08-25T07:06:22.149Z,48.55
2022-08-25T07:08:44.836Z,48.07
2022-08-25T07:11:15.991Z,47.68
2022-08-25T07:13:39.167Z,47.42
2022-08-25T07:16:01.315Z,47.06
2022-08-25T07:18:24.640Z,46.64
2022-08-25T07:20:46.729Z,46.16
2022-08-25T07:23:08.624Z,46.18
2022-08-25T07:25:30.948Z,46.44
2022-08-25T07:27:58.214Z,46.02
2022-08-25T07:30:20.914Z,45.75
2022-08-25T07:32:43.126Z,45.36
2022-08-25T07:35:19.008Z,45.36
2022-08-25T07:37:49.518Z,45.36
2022-08-25T07:40:23.423Z,44.93
2022-08-25T07:42:45.901Z,44.74
2022-08-25T07:45:09.802Z,44.32
2022-08-25T07:47:31.798Z,44.52
2022-08-25T07:49:53.725Z,44.42
2022-08-25T07:52:16.876Z,44.55
2022-08-25T07:54:39.291Z,44.58
2022-08-25T07:57:01.218Z,43.92
2022-08-25T07:59:24.056Z,43.88
2022-08-25T08:01:47.039Z,43.37
2022-08-25T08:04:09.462Z,42.90
2022-08-25T08:06:32.050Z,42.68
2022-08-25T08:08:58.917Z,42.16
2022-08-25T08:11:33.117Z,41.82
2022-08-25T08:13:57.783Z,41.99
2022-08-25T08:16:22.173Z,41.31
2022-08-25T08:18:46.017Z,41.26
2022-08-25T08:21:32.249Z,41.23
2022-08-25T08:23:58.931Z,40.78
2022-08-25T08:26:22.502Z,41.07
2022-08-25T08:28:58.856Z,41.05
2022-08-25T08:31:23.764Z,41.19
2022-08-25T08:33:51.164Z,40.96
2022-08-25T08:36:13.871Z,40.42
2022-08-25T08:38:40.508Z,40.34
2022-08-25T08:42:07.255Z,39.75
2022-08-25T08:44:30.957Z,39.06
2022-08-25T08:47:02.937Z,39.44
2022-08-25T08:50:02.119Z,39.23
2022-08-25T08:52:43.338Z,39.35
2022-08-25T08:55:17.424Z,38.69
2022-08-25T09:00:15.225Z,38.94
2022-08-25T09:02:52.337Z,39.30
2022-08-25T09:05:19.290Z,39.12
2022-08-25T09:07:56.154Z,38.70
2022-08-25T09:10:20.252Z,38.56
2022-08-25T09:13:01.007Z,38.48
2022-08-25T09:16:23.204Z,38.32
2022-08-25T09:19:33.436Z,38.32
2022-08-25T09:22:33.312Z,37.81
2022-08-25T09:25:18.749Z,37.29
2022-08-25T09:28:05.676Z,37.29
2022-08-25T09:30:37.114Z,36.41
2022-08-25T09:33:05.150Z,36.13
2022-08-25T09:35:34.502Z,36.21
2022-08-25T09:38:03.673Z,36.11
2022-08-25T09:40:28.756Z,35.09
2022-08-25T09:42:58.107Z,35.75
2022-08-25T09:45:45.960Z,35.40
2022-08-25T09:48:28.571Z,34.94
2022-08-25T09:51:08.748Z,34.80
2022-08-25T09:53:33.909Z,34.60
2022-08-25T09:56:07.598Z,33.76
2022-08-25T09:58:30.406Z,33.49
2022-08-25T10:01:13.589Z,33.80
2022-08-25T10:03:36.876Z,33.72
2022-08-25T10:06:12.931Z,33.65
2022-08-25T10:09:07.557Z,33.72
2022-08-25T10:11:43.504Z,32.83
2022-08-25T10:14:38.838Z,32.89
2022-08-25T10:17:30.586Z,32.27
2022-08-25T10:20:23.035Z,32.28
2022-08-25T10:22:48.341Z,32.10
2022-08-25T10:25:26.906Z,32.54
2022-08-25T10:28:21.508Z,31.03
2022-08-25T10:31:15.621Z,30.36
2022-08-25T10:33:59.980Z,30.14
2022-08-25T10:36:39.016Z,29.66
2022-08-25T10:39:02.854Z,29.28
2022-08-25T10:41:57.380Z,29.10
2022-08-25T10:45:01.507Z,29.27
2022-08-25T10:47:58.011Z,29.42
2022-08-25T10:50:40.936Z,29.44
2022-08-25T10:53:48.092Z,29.63
2022-08-25T10:56:37.016Z,27.91
2022-08-25T10:59:21.491Z,27.80
2022-08-25T11:02:30.992Z,28.55
2022-08-25T11:05:10.169Z,26.55
2022-08-25T11:07:48.259Z,27.43
2022-08-25T11:11:00.786Z,26.51
2022-08-25T11:13:46.114Z,25.76
2022-08-25T11:16:19.908Z,25.77
2022-08-25T11:19:10.198Z,25.87
2022-08-25T11:21:52.857Z,25.52
2022-08-25T11:24:47.120Z,25.24
2022-08-25T11:27:21.657Z,25.25
2022-08-25T11:29:59.932Z,25.14
2022-08-25T11:32:24.778Z,24.03
2022-08-25T11:34:46.782Z,24.43
2022-08-25T11:37:23.893Z,24.32
2022-08-25T11:40:08.822Z,25.01
2022-08-25T11:43:08.233Z,24.98
2022-08-25T11:46:03.633Z,25.34
2022-08-25T11:48:53.898Z,25.15
2022-08-25T11:51:31.481Z,24.53
2022-08-25T11:54:27.451Z,24.79
2022-08-25T11:57:04.339Z,24.89
2022-08-25T11:59:57.226Z,25.24
2022-08-25T12:02:50.492Z,24.89
2022-08-25T12:05:22.320Z,24.75
2022-08-25T12:07:47.408Z,24.80
2022-08-25T12:10:13.056Z,24.65
2022-08-25T12:12:57.416Z,24.46
2022-08-25T12:15:30.187Z,23.98
2022-08-25T12:18:40.174Z,24.40
2022-08-25T12:21:07.986Z,24.64
2022-08-25T12:23:34.672Z,24.08
2022-08-25T12:26:05.043Z,23.82
2022-08-25T12:29:13.498Z,23.47
2022-08-25T12:32:07.049Z,24.32
2022-08-25T12:34:50.960Z,24.75
2022-08-25T12:37:18.030Z,24.79
2022-08-25T12:39:49.350Z,25.30
2022-08-25T12:42:45.753Z,24.93
2022-08-25T12:45:23.934Z,24.89
2022-08-25T12:47:48.941Z,24.52
2022-08-25T12:50:47.710Z,24.66
2022-08-25T12:54:19.140Z,24.38
2022-08-25T12:56:52.943Z,24.28
2022-08-25T12:59:32.657Z,23.89
2022-08-25T13:02:39.826Z,24.34
2022-08-25T13:05:56.642Z,24.00
2022-08-25T13:08:47.148Z,23.42
2022-08-25T13:11:20.405Z,23.83
2022-08-25T13:14:12.355Z,24.16
2022-08-25T13:16:35.052Z,23.38
2022-08-25T13:19:02.096Z,23.21
2022-08-25T13:21:33.552Z,23.83
2022-08-25T13:24:05.126Z,22.92
2022-08-25T13:26:48.192Z,23.19
2022-08-25T13:29:22.063Z,23.36
2022-08-25T13:31:57.634Z,23.40
2022-08-25T13:34:34.241Z,23.39
2022-08-25T13:37:15.651Z,23.23
2022-08-25T13:39:55.965Z,23.09
2022-08-25T13:42:20.855Z,23.27
2022-08-25T13:44:52.462Z,22.43
2022-08-25T13:47:43.561Z,22.72
2022-08-25T13:50:21.264Z,23.10
2022-08-25T13:52:55.084Z,23.04
2022-08-25T13:55:27.784Z,22.56
2022-08-25T13:57:51.467Z,23.26
2022-08-25T14:00:31.902Z,22.79
2022-08-25T14:02:55.661Z,22.31
2022-08-25T14:05:38.313Z,22.44
2022-08-25T14:08:16.042Z,22.44
2022-08-25T14:10:45.228Z,22.58
2022-08-25T14:13:30.979Z,22.81
2022-08-25T14:15:53.147Z,22.71
2022-08-25T14:18:33.371Z,22.60
2022-08-25T14:20:57.786Z,21.88
2022-08-25T14:23:27.024Z,22.01
2022-08-25T14:25:55.485Z,22.55
2022-08-25T14:28:24.315Z,22.33
2022-08-25T14:30:54.347Z,22.43
2022-08-25T14:33:23.613Z,22.58
2022-08-25T14:35:51.549Z,22.31
2022-08-25T14:38:17.733Z,22.04
2022-08-25T14:40:39.913Z,21.67
2022-08-25T14:43:02.083Z,21.92
2022-08-25T14:45:24.179Z,21.69
2022-08-25T14:47:49.672Z,21.57
2022-08-25T14:50:14.778Z,21.37
2022-08-25T14:52:44.219Z,21.84
2022-08-25T14:55:06.980Z,22.14
2022-08-25T14:57:29.179Z,22.02
2022-08-25T14:59:52.325Z,21.96
2022-08-25T15:02:21.105Z,21.85
2022-08-25T15:04:49.342Z,22.20
2022-08-25T15:07:32.380Z,22.19
2022-08-25T15:09:54.178Z,21.91
2022-08-25T15:12:26.130Z,21.85
2022-08-25T15:14:58.835Z,21.76
2022-08-25T15:17:21.197Z,22.16
2022-08-25T15:19:43.349Z,21.63
2022-08-25T15:22:07.785Z,21.66
2022-08-25T15:24:34.990Z,22.12
2022-08-25T15:27:04.047Z,21.20
2022-08-25T15:29:30.117Z,21.60
2022-08-25T15:31:52.120Z,21.76
2022-08-25T15:34:14.539Z,21.62
2022-08-25T15:36:36.910Z,22.17
2022-08-25T15:39:00.308Z,22.18
2022-08-25T15:41:27.108Z,21.98
2022-08-25T15:43:51.644Z,22.03
2022-08-25T15:46:20.684Z,22.01
2022-08-25T15:48:42.839Z,21.94
2022-08-25T15:51:05.389Z,22.09
2022-08-25T15:53:29.725Z,22.02
2022-08-25T15:55:54.080Z,21.78
2022-08-25T15:58:16.825Z,22.01
2022-08-25T16:00:38.788Z,22.28
2022-08-25T16:03:00.908Z,21.91
2022-08-25T16:05:25.953Z,21.82
2022-08-25T16:07:51.837Z,21.99
2022-08-25T16:10:13.971Z,22.27
2022-08-25T16:12:35.944Z,22.13
2022-08-25T16:14:57.930Z,22.35
2022-08-25T16:17:20.717Z,21.71
2022-08-25T16:19:42.713Z,21.68
2022-08-25T16:22:04.785Z,21.84
2022-08-25T16:24:30.841Z,21.99
2022-08-25T16:26:53.469Z,22.57
2022-08-25T16:29:19.841Z,22.60
2022-08-25T16:31:41.883Z,22.81
2022-08-25T16:34:04.099Z,22.46
2022-08-25T16:36:28.474Z,22.52
2022-08-25T16:38:52.234Z,22.25
2022-08-25T16:41:23.502Z,22.19
2022-08-25T16:43:46.276Z,22.85
2022-08-25T16:46:13.953Z,23.05
2022-08-25T16:48:38.015Z,22.62
2022-08-25T16:51:00.471Z,22.77
2022-08-25T16:53:40.777Z,22.75
2022-08-25T16:56:06.632Z,23.16
2022-08-25T16:58:33.213Z,22.91
2022-08-25T17:00:55.331Z,23.13
2022-08-25T17:03:18.865Z,23.62
2022-08-25T17:05:42.958Z,23.47
2022-08-25T17:08:23.510Z,23.60
2022-08-25T17:10:47.619Z,24.51
2022-08-25T17:13:10.987Z,24.53
2022-08-25T17:15:33.227Z,24.76
2022-08-25T17:17:55.114Z,25.29
2022-08-25T17:20:17.062Z,25.32
2022-08-25T17:22:38.945Z,26.19
2022-08-25T17:25:01.635Z,26.96
2022-08-25T17:27:24.138Z,28.47
2022-08-25T17:29:48.025Z,28.44
2022-08-25T17:32:10.175Z,28.86
2022-08-25T17:34:35.645Z,28.96
2022-08-25T17:36:59.464Z,28.84
2022-08-25T17:39:23.530Z,29.14
2022-08-25T17:41:45.999Z,28.91
2022-08-25T17:44:07.999Z,29.19
2022-08-25T17:46:30.292Z,29.53
2022-08-25T17:48:54.684Z,29.83
2022-08-25T17:51:16.881Z,29.91
2022-08-25T17:53:39.456Z,30.42
2022-08-25T17:56:28.609Z,30.41
2022-08-25T17:58:55.120Z,31.52
2022-08-25T18:01:22.356Z,32.13
2022-08-25T18:03:45.654Z,32.42
2022-08-25T18:06:08.072Z,32.97
2022-08-25T18:08:34.907Z,33.02
2022-08-25T18:10:58.015Z,32.78
2022-08-25T18:13:20.115Z,33.09
2022-08-25T18:15:43.835Z,33.26
2022-08-25T18:18:06.513Z,33.90
2022-08-25T18:20:28.703Z,34.12
2022-08-25T18:22:51.435Z,34.26
2022-08-25T18:25:16.077Z,34.01
2022-08-25T18:27:39.311Z,34.10
2022-08-25T18:30:03.339Z,34.35
2022-08-25T18:32:26.004Z,34.19
2022-08-25T18:34:48.150Z,34.22
2022-08-25T18:37:28.523Z,34.25
2022-08-25T18:40:09.553Z,34.05
2022-08-25T18:42:31.516Z,34.69
2022-08-25T18:44:53.463Z,34.99
2022-08-25T18:47:15.335Z,34.70
2022-08-25T18:49:37.661Z,35.19
2022-08-25T18:51:59.725Z,35.45
2022-08-25T18:54:23.134Z,35.76
2022-08-25T18:56:45.747Z,35.98
2022-08-25T18:59:08.565Z,36.27
2022-08-25T19:01:31.212Z,36.34
2022-08-25T19:03:53.217Z,36.75
2022-08-25T19:06:16.153Z,37.17
2022-08-25T19:08:41.665Z,37.44
2022-08-25T19:11:04.851Z,37.95
2022-08-25T19:13:28.340Z,37.98
2022-08-25T19:15:52.558Z,38.55
2022-08-25T19:18:15.555Z,38.49
2022-08-25T19:20:41.251Z,39.16
2022-08-25T19:23:03.503Z,39.30
2022-08-25T19:25:33.061Z,40.02
2022-08-25T19:27:56.558Z,40.14
2022-08-25T19:30:24.909Z,40.37
2022-08-25T19:32:47.885Z,40.63
2022-08-25T19:35:38.367Z,40.25
2022-08-25T19:38:03.846Z,40.19
2022-08-25T19:40:30.352Z,39.67
2022-08-25T19:42:53.895Z,39.48
2022-08-25T19:45:16.519Z,39.06
2022-08-25T19:47:38.862Z,39.55
2022-08-25T19:50:00.805Z,39.69
2022-08-25T19:52:24.976Z,40.04
2022-08-25T19:54:48.695Z,40.41
2022-08-25T19:57:13.163Z,41.70
2022-08-25T19:59:50.039Z,42.32
2022-08-25T20:02:18.939Z,43.02
2022-08-25T20:04:41.433Z,43.81
2022-08-25T20:07:04.022Z,44.64
2022-08-25T20:09:39.302Z,45.25
2022-08-25T20:12:06.297Z,45.78
2022-08-25T20:14:28.374Z,46.40
2022-08-25T20:16:51.550Z,46.63
2022-08-25T20:19:15.869Z,47.31
2022-08-25T20:21:40.758Z,47.71
2022-08-25T20:24:21.582Z,48.54
2022-08-25T20:26:43.496Z,49.51
2022-08-25T20:29:05.913Z,49.67
2022-08-25T20:31:27.754Z,50.29
2022-08-25T20:33:50.049Z,51.24
2022-08-25T20:36:17.294Z,52.24
2022-08-25T20:38:44.537Z,52.41
2022-08-25T20:41:10.152Z,53.70
2022-08-25T20:43:34.588Z,53.83
2022-08-25T20:46:03.513Z,54.86
2022-08-25T20:48:26.869Z,54.77
2022-08-25T20:50:57.269Z,55.45
2022-08-25T20:53:19.977Z,56.92
2022-08-25T20:55:47.536Z,57.15
2022-08-25T20:58:09.379Z,58.11
2022-08-25T21:00:31.217Z,58.19
2022-08-25T21:02:53.419Z,58.86
2022-08-25T21:05:15.853Z,60.19
2022-08-25T21:07:37.973Z,60.01
2022-08-25T21:10:00.461Z,60.04
2022-08-25T21:12:23.956Z,60.72
2022-08-25T21:14:46.610Z,61.19
2022-08-25T21:17:13.105Z,61.57
2022-08-25T21:19:35.584Z,62.47
2022-08-25T21:22:00.290Z,63.08
2022-08-25T21:24:22.532Z,63.35
2022-08-25T21:26:52.660Z,63.46
2022-08-25T21:29:15.135Z,63.63
2022-08-25T21:31:37.386Z,64.52
2022-08-25T21:34:02.451Z,64.29
2022-08-25T21:36:29.523Z,63.59
2022-08-25T21:38:52.811Z,64.52
2022-08-25T21:41:25.591Z,64.96
2022-08-25T21:43:49.679Z,65.07
2022-08-25T21:46:15.059Z,65.21
2022-08-25T21:48:37.181Z,65.28
2022-08-25T21:51:12.138Z,65.01
2022-08-25T21:53:34.336Z,65.79
2022-08-25T21:55:56.243Z,66.07
2022-08-25T21:58:18.488Z,65.94
2022-08-25T22:00:40.345Z,66.09
2022-08-25T22:03:02.347Z,66.22
2022-08-25T22:05:24.273Z,66.77
2022-08-25T22:07:46.112Z,66.96
2022-08-25T22:10:16.424Z,67.05
2022-08-25T22:12:39.675Z,67.23
2022-08-25T22:15:01.802Z,67.22
2022-08-25T22:17:24.180Z,67.85
2022-08-25T22:19:46.693Z,67.99
2022-08-25T22:22:08.832Z,67.76
2022-08-25T22:24:30.724Z,67.54
2022-08-25T22:26:52.566Z,67.93
2022-08-25T22:29:25.185Z,67.24
2022-08-25T22:31:51.073Z,67.42
2022-08-25T22:34:14.962Z,67.40
2022-08-25T22:36:39.276Z,67.44
2022-08-25T22:39:03.571Z,67.48
2022-08-25T22:41:29.363Z,67.21
2022-08-25T22:43:53.066Z,67.23
2022-08-25T22:46:17.181Z,66.72
2022-08-25T22:48:39.480Z,66.65
2022-08-25T22:51:13.971Z,66.90
2022-08-25T22:53:38.451Z,66.90
2022-08-25T22:56:02.074Z,66.67
2022-08-25T22:58:24.356Z,67.63
2022-08-25T23:00:47.027Z,67.67
2022-08-25T23:03:09.049Z,67.83
2022-08-25T23:05:30.955Z,68.01
2022-08-25T23:07:52.767Z,68.11
2022-08-25T23:10:15.623Z,68.09
2022-08-25T23:12:39.473Z,68.20
2022-08-25T23:15:11.227Z,68.72
2022-08-25T23:17:33.519Z,68.82
2022-08-25T23:19:56.089Z,68.45
2022-08-25T23:22:18.215Z,68.74
2022-08-25T23:24:44.695Z,68.63
2022-08-25T23:27:08.983Z,69.27
2022-08-25T23:29:34.319Z,69.38
2022-08-25T23:31:58.280Z,69.31
2022-08-25T23:34:20.287Z,69.21
2022-08-25T23:36:42.289Z,69.86
2022-08-25T23:39:05.748Z,69.90
2022-08-25T23:41:29.829Z,70.36
2022-08-25T23:43:53.395Z,70.33
2022-08-25T23:46:24.175Z,70.98
2022-08-25T23:48:49.617Z,70.71
2022-08-25T23:51:12.688Z,70.98
2022-08-25T23:53:36.347Z,71.19
2022-08-25T23:55:59.508Z,71.34
2022-08-25T23:58:22.735Z,71.98
